createdAt,value
2017-12-08T00:00:18.973Z,86.96
2017-12-08T00:02:46.490Z,87.04
2017-12-08T00:05:14.012Z,87.09
2017-12-08T00:07:41.532Z,86.71
2017-12-08T00:10:09.045Z,86.59
2017-12-08T00:12:36.561Z,87.64
2017-12-08T00:15:04.079Z,87.74
2017-12-08T00:17:32.405Z,87.92
2017-12-08T00:19:59.913Z,87.88
2017-12-08T00:22:27.434Z,88.23
2017-12-08T00:24:54.955Z,88.32
2017-12-08T00:27:22.476Z,88.97
2017-12-08T00:29:49.998Z,88.83
2017-12-08T00:32:17.515Z,88.50
2017-12-08T00:34:45.038Z,89.11
2017-12-08T00:37:12.562Z,88.84
2017-12-08T00:39:40.087Z,88.50
2017-12-08T00:42:07.608Z,88.18
2017-12-08T00:44:35.135Z,89.31
2017-12-08T00:47:02.656Z,88.58
2017-12-08T00:49:30.173Z,88.74
2017-12-08T00:51:57.689Z,89.09
2017-12-08T00:54:25.227Z,88.80
2017-12-08T00:56:52.748Z,88.99
2017-12-08T00:59:20.266Z,89.21
2017-12-08T01:01:47.781Z,88.90
2017-12-08T01:04:15.305Z,89.17
2017-12-08T01:06:42.833Z,89.20
2017-12-08T01:09:10.359Z,89.04
2017-12-08T01:11:37.876Z,88.92
2017-12-08T01:14:05.400Z,89.70
2017-12-08T01:16:32.929Z,89.42
2017-12-08T01:19:00.441Z,89.72
2017-12-08T01:21:27.952Z,89.91
2017-12-08T01:23:55.476Z,89.49
2017-12-08T01:26:23.012Z,89.14
2017-12-08T01:28:50.533Z,89.30
2017-12-08T01:31:18.052Z,89.85
2017-12-08T01:33:45.578Z,89.48
2017-12-08T01:36:13.107Z,89.52
2017-12-08T01:38:40.626Z,89.80
2017-12-08T01:41:08.156Z,89.77
2017-12-08T01:43:36.589Z,89.61
2017-12-08T01:46:04.113Z,90.01
2017-12-08T01:48:31.646Z,89.60
2017-12-08T01:50:59.160Z,89.58
2017-12-08T01:53:26.698Z,89.50
2017-12-08T01:55:54.219Z,89.83
2017-12-08T01:58:21.741Z,89.87
2017-12-08T02:00:49.245Z,89.54
2017-12-08T02:03:16.766Z,89.26
2017-12-08T02:05:44.286Z,89.66
2017-12-08T02:08:11.801Z,89.96
2017-12-08T02:10:39.318Z,89.89
2017-12-08T02:13:06.846Z,89.75
2017-12-08T02:15:34.353Z,89.59
2017-12-08T02:18:01.871Z,89.93
2017-12-08T02:20:29.387Z,89.92
2017-12-08T02:22:56.911Z,89.81
2017-12-08T02:25:24.427Z,89.43
2017-12-08T02:27:51.952Z,89.19
2017-12-08T02:30:19.476Z,89.59
2017-12-08T02:32:46.999Z,89.89
2017-12-08T02:35:14.524Z,89.20
2017-12-08T02:37:42.046Z,89.86
2017-12-08T02:40:09.562Z,89.56
2017-12-08T02:42:37.083Z,89.33
2017-12-08T02:45:04.598Z,89.40
2017-12-08T02:47:32.126Z,89.73
2017-12-08T02:49:59.640Z,89.30
2017-12-08T02:52:27.143Z,89.20
2017-12-08T02:54:54.647Z,89.43
2017-12-08T02:57:22.162Z,89.27
2017-12-08T02:59:49.676Z,89.22
2017-12-08T03:02:17.209Z,88.86
2017-12-08T03:04:44.712Z,89.41
2017-12-08T03:07:12.223Z,89.43
2017-12-08T03:09:39.745Z,89.20
2017-12-08T03:12:07.248Z,89.51
2017-12-08T03:14:34.748Z,89.41
2017-12-08T03:17:02.258Z,89.13
2017-12-08T03:19:29.773Z,89.32
2017-12-08T03:21:57.280Z,89.43
2017-12-08T03:24:24.777Z,89.11
2017-12-08T03:26:52.301Z,89.16
2017-12-08T03:29:20.526Z,89.02
2017-12-08T03:31:48.036Z,89.50
2017-12-08T03:34:15.544Z,89.07
2017-12-08T03:36:43.092Z,89.34
2017-12-08T03:39:10.762Z,89.11
2017-12-08T03:41:38.270Z,89.06
2017-12-08T03:44:05.782Z,88.99
2017-12-08T03:46:33.298Z,88.91
2017-12-08T03:49:00.845Z,89.19
2017-12-08T03:51:28.465Z,89.30
2017-12-08T03:53:56.042Z,88.86
2017-12-08T03:56:23.602Z,88.85
2017-12-08T03:58:51.520Z,89.34
2017-12-08T04:01:19.064Z,88.99
2017-12-08T04:03:46.652Z,89.39
2017-12-08T04:06:14.162Z,89.12
2017-12-08T04:08:41.693Z,88.97
2017-12-08T04:11:09.218Z,89.08
2017-12-08T04:13:36.756Z,89.12
2017-12-08T04:16:04.265Z,89.04
2017-12-08T04:18:31.778Z,89.20
2017-12-08T04:20:59.296Z,88.77
2017-12-08T04:23:26.795Z,89.02
2017-12-08T04:25:54.322Z,89.44
2017-12-08T04:28:21.845Z,89.32
2017-12-08T04:30:49.371Z,89.47
2017-12-08T04:33:16.892Z,89.51
2017-12-08T04:35:44.423Z,89.18
2017-12-08T04:38:11.950Z,88.99
2017-12-08T04:40:39.473Z,89.33
2017-12-08T04:43:06.996Z,89.11
2017-12-08T04:45:34.517Z,89.77
2017-12-08T04:48:02.050Z,89.40
2017-12-08T04:50:29.574Z,89.66
2017-12-08T04:52:57.102Z,89.69
2017-12-08T04:55:24.625Z,89.18
2017-12-08T04:57:52.151Z,89.46
2017-12-08T05:00:19.685Z,89.66
2017-12-08T05:02:47.198Z,89.44
2017-12-08T05:05:14.727Z,89.68
2017-12-08T05:07:42.243Z,89.81
2017-12-08T05:10:09.747Z,89.49
2017-12-08T05:12:37.281Z,89.81
2017-12-08T05:15:05.002Z,89.40
2017-12-08T05:17:32.528Z,89.36
2017-12-08T05:20:00.044Z,89.31
2017-12-08T05:22:27.551Z,89.25
2017-12-08T05:24:55.064Z,89.58
2017-12-08T05:27:22.580Z,89.33
2017-12-08T05:29:50.071Z,89.11
2017-12-08T05:32:17.581Z,89.25
2017-12-08T05:34:45.138Z,89.03
2017-12-08T05:37:12.658Z,89.06
2017-12-08T05:39:40.198Z,88.79
2017-12-08T05:42:07.715Z,88.97
2017-12-08T05:44:35.233Z,89.15
2017-12-08T05:47:02.732Z,89.02
2017-12-08T05:49:30.268Z,88.98
2017-12-08T05:51:57.784Z,89.37
2017-12-08T05:54:25.319Z,89.17
2017-12-08T05:56:52.831Z,88.98
2017-12-08T05:59:20.344Z,89.06
2017-12-08T06:01:47.847Z,88.97
2017-12-08T06:04:15.349Z,88.71
2017-12-08T06:06:42.879Z,89.04
2017-12-08T06:09:10.394Z,88.95
2017-12-08T06:11:37.917Z,88.97
2017-12-08T06:14:05.439Z,88.80
2017-12-08T06:16:32.953Z,88.31
2017-12-08T06:19:00.471Z,88.37
2017-12-08T06:21:27.993Z,88.01
2017-12-08T06:23:55.496Z,88.07
2017-12-08T06:26:23.018Z,88.20
2017-12-08T06:28:50.539Z,88.18
2017-12-08T06:31:18.080Z,88.32
2017-12-08T06:33:45.607Z,88.16
2017-12-08T06:36:13.726Z,87.71
2017-12-08T06:38:41.235Z,87.74
2017-12-08T06:41:08.756Z,87.76
2017-12-08T06:43:36.303Z,87.68
2017-12-08T06:46:03.826Z,87.74
2017-12-08T06:48:31.347Z,87.62
2017-12-08T06:50:58.875Z,87.72
2017-12-08T06:53:26.429Z,87.75
2017-12-08T06:55:53.937Z,87.70
2017-12-08T06:58:21.454Z,87.76
2017-12-08T07:00:48.976Z,87.73
2017-12-08T07:03:16.820Z,87.52
2017-12-08T07:05:44.340Z,87.48
2017-12-08T07:08:11.857Z,87.27
2017-12-08T07:10:39.370Z,87.36
2017-12-08T07:13:06.885Z,87.27
2017-12-08T07:15:34.401Z,87.37
2017-12-08T07:18:02.536Z,87.36
2017-12-08T07:20:30.080Z,87.45
2017-12-08T07:22:57.600Z,87.16
2017-12-08T07:25:25.125Z,87.13
2017-12-08T07:27:52.637Z,87.21
2017-12-08T07:30:20.174Z,86.84
2017-12-08T07:32:47.702Z,86.70
2017-12-08T07:35:15.219Z,86.65
2017-12-08T07:37:42.749Z,86.46
2017-12-08T07:40:10.267Z,86.46
2017-12-08T07:42:38.409Z,86.30
2017-12-08T07:45:05.925Z,86.54
2017-12-08T07:47:33.438Z,86.27
2017-12-08T07:50:00.956Z,86.15
2017-12-08T07:52:28.472Z,85.91
2017-12-08T07:54:56.001Z,85.74
2017-12-08T07:57:23.519Z,85.89
2017-12-08T07:59:51.799Z,85.80
2017-12-08T08:02:19.312Z,85.69
2017-12-08T08:04:46.825Z,85.32
2017-12-08T08:07:14.343Z,85.09
2017-12-08T08:09:41.869Z,84.72
2017-12-08T08:12:09.389Z,84.32
2017-12-08T08:14:36.900Z,84.47
2017-12-08T08:17:04.405Z,84.36
2017-12-08T08:19:31.944Z,84.42
2017-12-08T08:21:59.473Z,84.39
2017-12-08T08:24:27.000Z,84.27
2017-12-08T08:26:54.527Z,84.36
2017-12-08T08:29:22.082Z,84.02
2017-12-08T08:31:49.590Z,83.99
2017-12-08T08:34:17.135Z,83.75
2017-12-08T08:36:44.665Z,83.77
2017-12-08T08:39:12.180Z,83.53
2017-12-08T08:41:39.709Z,83.11
2017-12-08T08:44:07.238Z,82.84
2017-12-08T08:46:34.756Z,82.45
2017-12-08T08:49:02.288Z,81.38
2017-12-08T08:51:29.818Z,79.99
2017-12-08T08:53:57.341Z,78.90
2017-12-08T08:56:24.869Z,78.58
2017-12-08T08:58:52.390Z,78.16
2017-12-08T09:01:19.905Z,78.84
2017-12-08T09:03:47.417Z,77.39
2017-12-08T09:06:14.937Z,75.62
2017-12-08T09:08:42.450Z,75.65
2017-12-08T09:11:09.966Z,76.36
2017-12-08T09:13:37.509Z,74.89
2017-12-08T09:16:05.043Z,75.53
2017-12-08T09:18:33.315Z,74.07
2017-12-08T09:21:01.830Z,73.29
2017-12-08T09:23:29.440Z,71.85
2017-12-08T09:25:56.958Z,71.91
2017-12-08T09:28:24.478Z,73.26
2017-12-08T09:30:52.005Z,71.64
2017-12-08T09:33:19.525Z,73.50
2017-12-08T09:35:47.101Z,70.52
2017-12-08T09:38:14.614Z,69.36
2017-12-08T09:40:42.172Z,68.71
2017-12-08T09:43:09.685Z,70.74
2017-12-08T09:45:37.217Z,71.69
2017-12-08T09:48:04.729Z,70.61
2017-12-08T09:50:32.240Z,71.24
2017-12-08T09:52:59.769Z,71.85
2017-12-08T09:55:27.292Z,71.77
2017-12-08T09:57:54.822Z,69.08
2017-12-08T10:00:22.345Z,69.69
2017-12-08T10:02:50.352Z,70.07
2017-12-08T10:05:17.873Z,68.96
2017-12-08T10:07:45.636Z,69.63
2017-12-08T10:10:13.251Z,70.21
2017-12-08T10:12:40.770Z,69.31
2017-12-08T10:15:08.392Z,71.10
2017-12-08T10:17:36.053Z,71.06
2017-12-08T10:20:03.616Z,70.93
2017-12-08T10:22:31.229Z,70.86
2017-12-08T10:24:58.780Z,71.48
2017-12-08T10:27:26.313Z,72.79
2017-12-08T10:29:53.941Z,73.03
2017-12-08T10:32:21.473Z,73.20
2017-12-08T10:34:49.025Z,72.38
2017-12-08T10:37:16.735Z,72.32
2017-12-08T10:39:44.289Z,70.91
2017-12-08T10:42:11.840Z,71.02
2017-12-08T10:44:39.365Z,71.12
2017-12-08T10:47:06.958Z,70.67
2017-12-08T10:49:34.514Z,71.46
2017-12-08T10:52:02.222Z,70.58
2017-12-08T10:54:29.803Z,71.37
2017-12-08T10:56:57.346Z,71.51
2017-12-08T10:59:24.877Z,72.01
2017-12-08T11:01:52.395Z,72.50
2017-12-08T11:04:19.957Z,71.65
2017-12-08T11:06:47.496Z,72.70
2017-12-08T11:09:15.101Z,72.78
2017-12-08T11:11:42.888Z,72.76
2017-12-08T11:14:10.404Z,72.43
2017-12-08T11:16:37.924Z,73.41
2017-12-08T11:19:05.459Z,73.43
2017-12-08T11:21:32.993Z,73.86
2017-12-08T11:24:00.605Z,73.06
2017-12-08T11:26:28.210Z,73.05
2017-12-08T11:28:55.733Z,73.17
2017-12-08T11:31:23.256Z,74.07
2017-12-08T11:33:50.866Z,73.85
2017-12-08T11:36:18.364Z,73.22
2017-12-08T11:38:45.866Z,73.85
2017-12-08T11:41:13.378Z,73.69
2017-12-08T11:43:40.876Z,73.35
2017-12-08T11:46:08.399Z,72.34
2017-12-08T11:48:36.017Z,71.46
2017-12-08T11:51:03.533Z,70.70
2017-12-08T11:53:31.045Z,70.23
2017-12-08T11:55:58.572Z,70.48
2017-12-08T11:58:26.108Z,69.81
2017-12-08T12:00:53.614Z,68.56
2017-12-08T12:03:21.124Z,68.62
2017-12-08T12:05:48.651Z,68.70
2017-12-08T12:08:16.170Z,68.44
2017-12-08T12:10:43.675Z,68.24
2017-12-08T12:13:11.190Z,69.62
2017-12-08T12:15:39.497Z,69.10
2017-12-08T12:18:07.014Z,68.64
2017-12-08T12:20:34.535Z,69.47
2017-12-08T12:23:02.049Z,69.14
2017-12-08T12:25:29.575Z,69.40
2017-12-08T12:27:57.093Z,69.63
2017-12-08T12:30:24.611Z,69.40
2017-12-08T12:32:52.127Z,69.02
2017-12-08T12:35:19.644Z,67.91
2017-12-08T12:37:47.167Z,67.97
2017-12-08T12:40:14.687Z,67.83
2017-12-08T12:42:42.200Z,67.60
2017-12-08T12:45:09.704Z,66.89
2017-12-08T12:47:37.220Z,66.51
2017-12-08T12:50:04.749Z,67.68
2017-12-08T12:52:32.257Z,67.45
2017-12-08T12:54:59.817Z,66.51
2017-12-08T12:57:27.345Z,67.16
2017-12-08T12:59:54.862Z,67.14
2017-12-08T13:02:22.372Z,67.36
2017-12-08T13:04:49.890Z,66.99
2017-12-08T13:07:17.411Z,67.06
2017-12-08T13:09:44.960Z,66.51
2017-12-08T13:12:12.480Z,66.87
2017-12-08T13:14:39.989Z,65.87
2017-12-08T13:17:07.489Z,66.10
2017-12-08T13:19:34.998Z,67.73
2017-12-08T13:22:02.508Z,67.32
2017-12-08T13:24:30.025Z,67.96
2017-12-08T13:26:57.555Z,67.67
2017-12-08T13:29:25.082Z,68.40
2017-12-08T13:31:52.621Z,68.60
2017-12-08T13:34:20.145Z,69.34
2017-12-08T13:36:47.663Z,69.64
2017-12-08T13:39:15.184Z,68.27
2017-12-08T13:41:42.714Z,68.81
2017-12-08T13:44:10.243Z,68.91
2017-12-08T13:46:37.767Z,69.04
2017-12-08T13:49:05.277Z,68.61
2017-12-08T13:51:32.797Z,68.47
2017-12-08T13:57:03.824Z,67.67
2017-12-08T13:59:31.335Z,68.32
2017-12-08T14:01:58.851Z,68.39
2017-12-08T14:04:26.370Z,68.54
2017-12-08T14:06:53.874Z,68.50
2017-12-08T14:09:21.399Z,68.66
2017-12-08T14:11:48.924Z,68.05
2017-12-08T14:14:16.432Z,65.09
2017-12-08T14:16:43.937Z,65.53
2017-12-08T14:19:11.453Z,65.08
2017-12-08T14:21:38.988Z,65.22
2017-12-08T14:24:06.504Z,64.82
2017-12-08T14:26:34.021Z,66.39
2017-12-08T14:29:01.538Z,65.92
2017-12-08T14:31:29.061Z,64.90
2017-12-08T14:33:56.581Z,65.00
2017-12-08T14:36:24.124Z,65.96
2017-12-08T14:38:51.647Z,65.42
2017-12-08T14:41:19.159Z,65.38
2017-12-08T14:43:46.669Z,66.67
2017-12-08T14:46:14.180Z,66.30
2017-12-08T14:48:41.706Z,65.45
2017-12-08T14:51:09.224Z,65.42
2017-12-08T14:53:36.738Z,65.39
2017-12-08T14:56:04.259Z,64.61
2017-12-08T14:58:31.814Z,65.63
2017-12-08T15:00:59.328Z,65.28
2017-12-08T15:03:26.833Z,65.88
2017-12-08T15:05:54.347Z,65.85
2017-12-08T15:08:21.853Z,66.08
2017-12-08T15:10:49.360Z,65.69
2017-12-08T15:13:16.874Z,67.65
2017-12-08T15:15:45.453Z,66.21
2017-12-08T15:18:12.955Z,67.42
2017-12-08T15:20:40.470Z,67.07
2017-12-08T15:23:08.013Z,66.62
2017-12-08T15:25:35.526Z,66.89
2017-12-08T15:28:03.057Z,67.39
2017-12-08T15:30:30.630Z,67.50
2017-12-08T15:32:58.142Z,67.22
2017-12-08T15:35:25.669Z,67.87
2017-12-08T15:37:53.195Z,66.42
2017-12-08T15:40:20.717Z,66.78
2017-12-08T15:42:48.244Z,67.68
2017-12-08T15:45:15.752Z,67.43
2017-12-08T15:47:43.308Z,67.61
2017-12-08T15:50:10.823Z,66.57
2017-12-08T15:52:38.346Z,70.25
2017-12-08T15:55:05.872Z,74.92
2017-12-08T15:57:33.382Z,79.46
2017-12-08T16:00:00.902Z,80.85
2017-12-08T16:02:28.409Z,82.37
2017-12-08T16:04:55.931Z,83.68
2017-12-08T16:07:23.433Z,83.31
2017-12-08T16:09:50.962Z,84.10
2017-12-08T16:12:18.489Z,83.56
2017-12-08T16:14:46.004Z,85.02
2017-12-08T16:17:13.513Z,84.96
2017-12-08T16:19:41.043Z,84.72
2017-12-08T16:22:08.563Z,84.44
2017-12-08T16:24:36.073Z,85.83
2017-12-08T16:27:03.569Z,85.75
2017-12-08T16:29:31.085Z,85.38
2017-12-08T16:31:58.589Z,85.72
2017-12-08T16:34:26.098Z,86.48
2017-12-08T16:36:53.628Z,86.79
2017-12-08T16:39:21.155Z,85.90
2017-12-08T16:41:48.661Z,86.84
2017-12-08T16:44:17.206Z,86.98
2017-12-08T16:46:45.435Z,86.65
2017-12-08T16:49:13.842Z,86.81
2017-12-08T16:51:41.341Z,86.51
2017-12-08T16:54:08.857Z,86.39
2017-12-08T16:56:36.366Z,87.13
2017-12-08T16:59:03.894Z,86.67
2017-12-08T17:01:31.426Z,87.34
2017-12-08T17:03:58.939Z,87.71
2017-12-08T17:06:26.469Z,87.19
2017-12-08T17:08:53.968Z,87.83
2017-12-08T17:11:21.784Z,87.38
2017-12-08T17:13:49.294Z,88.13
2017-12-08T17:16:16.809Z,87.66
2017-12-08T17:18:44.317Z,87.52
2017-12-08T17:21:11.838Z,87.30
2017-12-08T17:23:40.142Z,87.08
2017-12-08T17:26:07.708Z,87.41
2017-12-08T17:28:35.229Z,87.66
2017-12-08T17:31:02.726Z,87.26
2017-12-08T17:33:30.280Z,87.85
2017-12-08T17:35:57.789Z,87.92
2017-12-08T17:38:25.309Z,87.27
2017-12-08T17:40:52.825Z,87.69
2017-12-08T17:43:20.338Z,87.39
2017-12-08T17:45:47.849Z,87.09
2017-12-08T17:48:15.369Z,87.79
2017-12-08T17:50:42.878Z,87.26
2017-12-08T17:53:10.387Z,87.71
2017-12-08T17:55:37.896Z,87.62
2017-12-08T17:58:05.408Z,87.54
2017-12-08T18:00:32.919Z,87.45
2017-12-08T18:03:00.438Z,87.08
2017-12-08T18:05:27.958Z,87.14
2017-12-08T18:07:55.470Z,87.32
2017-12-08T18:10:23.000Z,87.23
2017-12-08T18:12:50.509Z,87.11
2017-12-08T18:15:18.017Z,86.89
2017-12-08T18:17:45.543Z,87.18
2017-12-08T18:20:13.055Z,87.34
2017-12-08T18:22:41.280Z,87.40
2017-12-08T18:25:08.793Z,87.42
2017-12-08T18:27:36.298Z,87.63
2017-12-08T18:30:04.081Z,87.65
2017-12-08T18:32:31.591Z,87.63
2017-12-08T18:34:59.113Z,87.90
2017-12-08T18:37:26.622Z,88.11
2017-12-08T18:39:54.134Z,87.62
2017-12-08T18:42:21.646Z,88.15
2017-12-08T18:44:49.161Z,87.84
2017-12-08T18:47:17.125Z,87.80
2017-12-08T18:49:44.637Z,88.00
2017-12-08T18:52:12.153Z,88.01
2017-12-08T18:54:40.007Z,88.02
2017-12-08T18:57:07.523Z,87.83
2017-12-08T18:59:35.032Z,87.91
2017-12-08T19:02:02.555Z,87.85
2017-12-08T19:04:30.074Z,87.62
2017-12-08T19:06:57.575Z,87.94
2017-12-08T19:09:25.091Z,88.11
2017-12-08T19:11:52.618Z,87.94
2017-12-08T19:14:20.174Z,88.37
2017-12-08T19:16:47.712Z,88.05
2017-12-08T19:19:15.233Z,88.30
2017-12-08T19:21:42.739Z,88.78
2017-12-08T19:24:10.243Z,88.39
2017-12-08T19:26:38.732Z,88.24
2017-12-08T19:29:06.268Z,88.77
2017-12-08T19:31:33.796Z,88.60
2017-12-08T19:34:01.344Z,88.83
2017-12-08T19:36:28.870Z,89.07
2017-12-08T19:38:56.497Z,88.34
2017-12-08T19:41:24.022Z,88.66
2017-12-08T19:43:51.551Z,88.79
2017-12-08T19:46:19.166Z,89.05
2017-12-08T19:48:46.732Z,88.52
2017-12-08T19:51:14.602Z,88.85
2017-12-08T19:53:42.117Z,88.92
2017-12-08T19:56:09.630Z,88.42
2017-12-08T19:58:37.149Z,88.52
2017-12-08T20:01:04.664Z,88.26
2017-12-08T20:03:32.197Z,88.21
2017-12-08T20:05:59.804Z,87.84
2017-12-08T20:08:27.317Z,87.82
2017-12-08T20:10:54.834Z,87.29
2017-12-08T20:13:22.345Z,87.58
2017-12-08T20:15:49.864Z,87.15
2017-12-08T20:18:17.378Z,86.90
2017-12-08T20:20:45.829Z,86.72
2017-12-08T20:23:13.345Z,86.96
2017-12-08T20:25:40.873Z,86.77
2017-12-08T20:28:08.419Z,86.74
2017-12-08T20:30:35.942Z,86.74
2017-12-08T20:33:03.595Z,86.59
2017-12-08T20:35:31.115Z,86.28
2017-12-08T20:38:02.392Z,86.15
2017-12-08T20:40:29.921Z,86.16
2017-12-08T20:42:58.382Z,85.97
2017-12-08T20:45:27.923Z,86.47
2017-12-08T20:47:55.440Z,86.60
2017-12-08T20:50:24.273Z,86.52
2017-12-08T20:52:51.790Z,86.52
2017-12-08T20:55:19.313Z,85.56
2017-12-08T20:57:46.822Z,85.41
2017-12-08T21:00:14.343Z,85.52
2017-12-08T21:02:41.860Z,85.15
2017-12-08T21:05:09.411Z,85.01
2017-12-08T21:07:36.945Z,84.31
2017-12-08T21:10:04.499Z,84.36
2017-12-08T21:12:32.008Z,84.16
2017-12-08T21:14:59.540Z,84.25
2017-12-08T21:17:27.045Z,84.46
2017-12-08T21:19:54.998Z,84.76
2017-12-08T21:22:22.534Z,84.42
2017-12-08T21:24:50.080Z,84.01
2017-12-08T21:27:17.612Z,83.80
2017-12-08T21:29:45.124Z,83.50
2017-12-08T22:51:09.692Z,83.98
2017-12-08T22:53:38.691Z,84.50
2017-12-08T22:56:06.221Z,84.60
2017-12-08T22:58:33.741Z,84.58
2017-12-08T23:01:01.257Z,85.06
2017-12-08T23:03:28.807Z,85.26
2017-12-08T23:05:57.779Z,85.14
2017-12-08T23:08:25.293Z,85.83
2017-12-08T23:10:52.805Z,86.08
2017-12-08T23:13:21.380Z,85.91
2017-12-08T23:15:49.515Z,85.66
2017-12-08T23:18:17.045Z,85.92
2017-12-08T23:20:44.638Z,86.37
2017-12-08T23:23:12.181Z,86.38
2017-12-08T23:25:39.802Z,86.77
2017-12-08T23:28:10.179Z,86.90
2017-12-08T23:30:37.704Z,86.24
2017-12-08T23:33:05.705Z,86.47
2017-12-08T23:35:33.921Z,86.51
2017-12-08T23:38:01.446Z,86.32
2017-12-08T23:40:28.981Z,86.31
2017-12-08T23:42:56.504Z,86.22
2017-12-08T23:45:24.324Z,86.22
2017-12-08T23:47:52.660Z,86.28
2017-12-08T23:50:20.185Z,86.40
2017-12-08T23:52:48.257Z,86.35
2017-12-08T23:55:15.784Z,86.04
2017-12-08T23:57:43.304Z,86.14
